Time;durP1;ratioP1;P1;durP2;ratioP2;P2;SDS_P1;SDS_P2;PMS_P1;PMS_P2;Temp;Humidity;BMP_temperature;BMP_pressure;BME280_temperature;BME280_humidity;BME280_pressure;Samples;Min_cycle;Max_cycle;Signal;HPM_P1;HPM_P2
2023/03/29 00:01:17;;;;;;;8.57;6.22;;;;;;;8.04;96.91;99207.38;10168200;29;20039;-79
2023/03/29 00:06:21;;;;;;;10.27;6.85;;;;;;;7.99;96.57;99218.53;10167591;29;20040;-82
2023/03/29 00:11:22;;;;;;;8.43;6.57;;;;;;;7.79;96.62;99185.63;10167733;29;20040;-83
2023/03/29 00:16:23;;;;;;;8.73;6.10;;;;;;;8.16;96.78;99258.84;10181706;29;20508;-82
2023/03/29 00:21:24;;;;;;;9.23;6.60;;;;;;;8.10;97.08;99251.63;10201650;29;20431;-82
2023/03/29 00:26:25;;;;;;;7.65;6.15;;;;;;;7.99;97.16;99210.59;10206120;29;20043;-81
2023/03/29 00:31:26;;;;;;;9.32;6.50;;;;;;;8.17;97.32;99226.13;10206283;29;20161;-82
2023/03/29 00:36:27;;;;;;;8.93;5.95;;;;;;;8.06;96.50;99207.22;10205859;29;20132;-82
2023/03/29 00:41:28;;;;;;;8.30;5.95;;;;;;;8.00;97.03;99216.69;10205006;29;20086;-82
2023/03/29 00:46:29;;;;;;;10.68;7.32;;;;;;;7.67;97.24;99182.59;10205271;29;20432;-81
2023/03/29 00:51:36;;;;;;;9.65;6.60;;;;;;;7.78;97.85;99195.41;10194497;28;20044;-83
2023/03/29 00:56:39;;;;;;;8.88;5.25;;;;;;;7.77;96.97;99209.59;10180611;29;20043;-82
2023/03/29 01:02:12;;;;;;;22.15;12.55;;;;;;;7.53;97.12;99207.16;10211433;29;20062;-81
2023/03/29 01:07:25;;;;;;;19.05;10.18;;;;;;;7.59;97.13;99216.19;10227968;28;20056;-82
2023/03/29 01:12:31;;;;;;;26.60;10.23;;;;;;;7.30;96.98;99152.50;10211691;29;20134;-82
2023/03/29 01:17:32;;;;;;;11.68;7.80;;;;;;;7.63;96.36;99196.31;10211182;29;20086;-82
2023/03/29 01:22:53;;;;;;;10.68;7.88;;;;;;;7.65;96.12;99189.88;10207434;29;20055;-81
2023/03/29 01:28:02;;;;;;;19.23;7.90;;;;;;;7.55;96.10;99210.44;10210341;28;20048;-81
2023/03/29 01:33:30;;;;;;;14.60;9.20;;;;;;;7.55;97.95;99208.63;10171902;29;20506;-81
2023/03/29 01:38:57;;;;;;;12.18;7.45;;;;;;;7.45;96.79;99212.47;10171446;29;20135;-82
2023/03/29 01:44:10;;;;;;;22.33;12.88;;;;;;;7.14;96.69;99226.53;10170778;29;20516;-82
2023/03/29 01:49:23;;;;;;;11.17;7.40;;;;;;;6.68;98.05;99157.78;10170847;29;20044;-82
2023/03/29 01:54:32;;;;;;;19.43;11.53;;;;;;;6.51;97.88;99124.56;10185365;29;20047;-81
2023/03/29 01:59:37;;;;;;;12.43;7.97;;;;;;;7.11;97.97;99211.03;10170532;28;20047;-81
2023/03/29 02:04:46;;;;;;;9.50;7.20;;;;;;;6.94;98.11;99194.47;10171084;29;20051;-81
2023/03/29 02:09:51;;;;;;;11.73;7.43;;;;;;;6.98;98.09;99222.16;10171347;29;20514;-81
2023/03/29 02:14:52;;;;;;;9.10;6.95;;;;;;;7.15;98.13;99232.63;10171167;29;20098;-80
2023/03/29 02:20:01;;;;;;;13.65;7.45;;;;;;;7.13;98.80;99214.34;10170180;29;20159;-79
2023/03/29 02:25:07;;;;;;;10.73;6.57;;;;;;;7.46;97.57;99274.91;10184565;29;20054;-81
2023/03/29 02:30:10;;;;;;;18.60;7.85;;;;;;;7.26;97.90;99232.25;10193073;29;20048;-81
2023/03/29 02:35:20;;;;;;;12.17;7.87;;;;;;;6.45;99.46;99109.41;10209336;29;20050;-81
2023/03/29 02:40:24;;;;;;;18.40;7.32;;;;;;;7.42;99.25;99278.88;10223334;29;20059;-81
2023/03/29 02:45:28;;;;;;;16.13;7.35;;;;;;;6.88;99.30;99194.31;10209303;29;20083;-81
2023/03/29 02:50:36;;;;;;;15.75;7.20;;;;;;;7.24;99.18;99255.38;10209483;29;20046;-81
2023/03/29 02:55:37;;;;;;;16.40;9.23;;;;;;;7.34;98.33;99294.81;10208279;29;20495;-81
2023/03/29 03:00:44;;;;;;;26.15;12.70;;;;;;;7.28;97.96;99288.38;10208453;29;20040;-82
2023/03/29 03:05:45;;;;;;;23.50;11.52;;;;;;;7.20;97.56;99275.22;10207922;28;20094;-82
2023/03/29 03:10:46;;;;;;;22.08;8.85;;;;;;;7.14;97.55;99246.84;10207341;29;20078;-81
2023/03/29 03:15:48;;;;;;;11.30;7.30;;;;;;;6.59;98.11;99141.19;10205087;29;20039;-81
2023/03/29 03:20:55;;;;;;;9.48;6.80;;;;;;;7.38;99.11;99280.22;10203122;29;20043;-83
2023/03/29 03:25:55;;;;;;;11.50;6.82;;;;;;;7.05;98.67;99219.66;10332950;28;20416;-78
2023/03/29 03:30:56;;;;;;;9.95;7.00;;;;;;;7.57;98.77;99281.59;10387099;28;20048;-79
2023/03/29 03:36:05;;;;;;;13.15;6.85;;;;;;;7.66;98.48;99270.00;10397179;28;20041;-79
2023/03/29 03:41:06;;;;;;;8.48;6.35;;;;;;;7.87;97.57;99285.22;10390507;28;20038;-79
2023/03/29 03:46:07;;;;;;;12.15;7.78;;;;;;;7.62;97.44;99234.34;10390159;28;20041;-77
2023/03/29 03:51:09;;;;;;;13.13;8.23;;;;;;;8.31;97.47;99313.63;10407515;28;20048;-77
2023/03/29 03:56:09;;;;;;;7.85;6.38;;;;;;;7.30;97.00;99135.81;10391300;28;20045;-82
2023/03/29 04:01:10;;;;;;;10.57;7.35;;;;;;;8.61;96.43;99290.72;10384625;28;20045;-79
2023/03/29 04:06:11;;;;;;;22.10;7.38;;;;;;;9.48;95.75;99292.66;10393553;28;20137;-79
2023/03/29 04:11:12;;;;;;;8.57;7.03;;;;;;;10.28;95.00;99281.84;10379674;28;20125;-78
2023/03/29 04:16:13;;;;;;;9.00;6.13;;;;;;;10.39;93.81;99218.66;10399622;28;20111;-76
2023/03/29 04:21:15;;;;;;;10.48;6.50;;;;;;;11.05;92.88;99281.97;10374776;28;20041;-78
2023/03/29 04:26:16;;;;;;;10.50;6.72;;;;;;;11.54;91.09;99254.31;10412773;28;20558;-76
2023/03/29 04:31:17;;;;;;;8.18;5.97;;;;;;;11.61;89.61;99170.88;10421910;28;20049;-79
2023/03/29 04:36:18;;;;;;;10.55;6.07;;;;;;;11.71;87.83;99133.22;10412860;28;20038;-80
2023/03/29 04:41:24;;;;;;;8.88;6.50;;;;;;;12.40;83.24;99205.66;10406642;28;20080;-77
2023/03/29 04:46:25;;;;;;;11.40;5.72;;;;;;;12.29;84.06;99220.41;10403176;28;20049;-78
2023/03/29 04:51:26;;;;;;;8.00;6.13;;;;;;;12.17;83.99;99262.81;10407927;28;20099;-82
2023/03/29 04:56:27;;;;;;;16.65;8.85;;;;;;;12.23;84.07;99266.50;10414988;28;20454;-82
2023/03/29 05:01:27;;;;;;;24.83;12.23;;;;;;;11.98;84.09;99223.72;10414205;28;20041;-83
2023/03/29 05:06:28;;;;;;;11.93;6.65;;;;;;;11.66;83.45;99156.94;10413812;28;20041;-83
2023/03/29 05:11:29;;;;;;;8.43;6.18;;;;;;;12.24;83.40;99230.91;10415232;28;20056;-83
2023/03/29 05:16:30;;;;;;;10.55;6.75;;;;;;;12.46;82.90;99244.78;10418659;28;20069;-83
2023/03/29 05:21:32;;;;;;;7.63;5.82;;;;;;;12.28;82.76;99227.59;10419409;28;20136;-83
2023/03/29 05:26:34;;;;;;;9.55;5.80;;;;;;;12.45;82.82;99232.50;10418611;28;20049;-81
2023/03/29 05:31:38;;;;;;;10.80;7.22;;;;;;;12.14;82.33;99167.38;10419793;28;20528;-81
2023/03/29 05:36:41;;;;;;;9.60;6.75;;;;;;;12.93;81.49;99234.84;10417857;28;20041;-82
2023/03/29 05:41:42;;;;;;;9.57;6.33;;;;;;;13.28;79.95;99229.19;10418776;28;20045;-82
2023/03/29 05:46:43;;;;;;;8.63;6.18;;;;;;;13.44;78.82;99218.03;10418596;28;20505;-81
2023/03/29 05:51:45;;;;;;;8.25;5.88;;;;;;;13.60;79.01;99241.53;10417760;28;20041;-84
2023/03/29 05:56:46;;;;;;;7.13;5.53;;;;;;;13.74;77.58;99158.72;10417861;28;20033;-85
2023/03/29 06:01:46;;;;;;;9.15;6.38;;;;;;;14.25;76.10;99197.72;10417258;28;20127;-83
2023/03/29 06:06:47;;;;;;;10.98;6.38;;;;;;;14.21;76.05;99177.81;10416045;28;20379;-83
2023/03/29 06:11:48;;;;;;;10.15;6.55;;;;;;;14.03;76.17;99149.22;10415440;28;20064;-84
2023/03/29 06:16:48;;;;;;;7.30;6.07;;;;;;;14.29;75.36;99134.78;10415472;28;20049;-83
2023/03/29 06:21:51;;;;;;;9.02;6.60;;;;;;;13.62;74.77;99026.00;10417235;28;20045;-81
2023/03/29 06:26:52;;;;;;;12.35;6.10;;;;;;;14.32;74.14;99097.75;10416939;28;20046;-82
2023/03/29 06:31:55;;;;;;;10.38;5.57;;;;;;;14.47;73.52;99100.06;10416089;28;20052;-83
2023/03/29 06:36:56;;;;;;;11.93;5.30;;;;;;;14.45;72.77;99128.88;10416502;28;20046;-83
2023/03/29 06:41:57;;;;;;;10.07;5.40;;;;;;;15.04;71.04;99146.03;10414144;28;20041;-82
2023/03/29 06:46:59;;;;;;;7.88;4.65;;;;;;;15.06;70.68;99143.16;10414771;28;20044;-82
2023/03/29 06:52:00;;;;;;;7.35;4.93;;;;;;;14.07;71.03;99038.28;10414403;28;20116;-84
2023/03/29 06:57:02;;;;;;;7.55;4.93;;;;;;;14.63;71.25;99170.00;10415110;28;20136;-83
2023/03/29 07:02:02;;;;;;;7.07;4.80;;;;;;;14.59;71.62;99185.69;10416123;28;20040;-85
2023/03/29 07:07:05;;;;;;;6.57;4.65;;;;;;;14.53;71.84;99198.06;10416225;28;20517;-86
2023/03/29 07:12:06;;;;;;;10.25;5.05;;;;;;;14.24;71.93;99148.81;10414601;28;20048;-85
2023/03/29 07:17:07;;;;;;;5.85;4.97;;;;;;;14.21;71.24;99141.25;10415744;28;20523;-86
2023/03/29 07:22:09;;;;;;;9.48;5.65;;;;;;;14.59;70.97;99165.09;10414356;28;20056;-82
2023/03/29 07:27:11;;;;;;;13.25;6.35;;;;;;;14.29;70.54;99081.38;10415817;28;20045;-85
2023/03/29 07:32:12;;;;;;;8.20;5.55;;;;;;;14.92;70.25;99139.81;10414108;28;20041;-83
2023/03/29 07:37:13;;;;;;;7.30;5.72;;;;;;;15.26;69.49;99162.44;10414324;28;20041;-83
2023/03/29 07:42:13;;;;;;;11.68;5.40;;;;;;;15.40;69.15;99130.13;10412337;28;20549;-82
2023/03/29 07:47:14;;;;;;;7.80;5.40;;;;;;;15.72;68.20;99136.03;10413896;28;20466;-84
2023/03/29 07:52:15;;;;;;;11.82;7.15;;;;;;;16.12;66.89;99119.28;10413843;28;20064;-83
2023/03/29 07:57:16;;;;;;;7.88;4.80;;;;;;;16.31;65.74;99085.94;10413303;28;20041;-83
2023/03/29 08:02:18;;;;;;;8.77;4.97;;;;;;;16.79;64.76;99140.28;10412971;28;20421;-82
2023/03/29 08:07:19;;;;;;;11.55;5.10;;;;;;;16.42;64.30;99101.19;10414173;28;20169;-83
2023/03/29 08:12:20;;;;;;;6.47;4.90;;;;;;;16.34;64.75;99104.22;10413243;28;20498;-83
2023/03/29 08:17:21;;;;;;;8.13;5.40;;;;;;;16.56;64.40;99108.97;10413149;28;20097;-83
2023/03/29 08:22:23;;;;;;;8.45;5.30;;;;;;;16.67;63.74;99062.53;10412375;28;20441;-83
2023/03/29 08:27:24;;;;;;;7.45;5.35;;;;;;;16.57;63.48;99067.69;10413136;28;20045;-81
2023/03/29 08:32:25;;;;;;;7.45;4.80;;;;;;;15.83;64.33;99044.19;10412656;28;20067;-83
2023/03/29 08:37:26;;;;;;;6.53;4.82;;;;;;;15.68;65.01;99113.47;10412721;28;20051;-84
2023/03/29 08:42:55;;;;;;;9.85;5.55;;;;;;;16.01;64.81;99093.31;10412768;28;20049;-82
2023/03/29 08:48:16;;;;;;;7.82;5.43;;;;;;;16.26;63.75;99091.19;10412668;28;20048;-82
2023/03/29 08:53:23;;;;;;;6.32;4.93;;;;;;;16.10;63.05;99051.75;10412550;28;20076;-81
2023/03/29 08:58:28;;;;;;;9.15;5.57;;;;;;;16.42;63.48;99082.44;10412416;28;20045;-84
2023/03/29 09:03:37;;;;;;;8.38;4.80;;;;;;;16.42;63.07;99113.75;10411739;28;20089;-82
2023/03/29 09:08:45;;;;;;;7.55;5.15;;;;;;;16.01;62.21;99066.53;10411822;28;20084;-82
2023/03/29 09:14:07;;;;;;;5.60;4.35;;;;;;;16.31;62.26;99059.16;10418363;28;20060;-80
2023/03/29 09:19:26;;;;;;;7.22;4.78;;;;;;;16.70;60.51;99008.44;10419883;28;20485;-75
2023/03/29 09:24:33;;;;;;;5.88;3.97;;;;;;;17.67;60.28;99076.34;10419512;28;20131;-75
2023/03/29 09:29:46;;;;;;;5.93;4.20;;;;;;;17.44;59.78;99088.91;10411393;28;20081;-75
2023/03/29 09:35:17;;;;;;;5.90;4.10;;;;;;;17.32;59.81;99080.09;10410246;28;20053;-75
2023/03/29 09:40:26;;;;;;;6.45;4.15;;;;;;;17.71;58.81;99102.47;10412884;28;20647;-75
2023/03/29 09:45:27;;;;;;;5.82;4.00;;;;;;;17.38;58.69;99003.13;10413850;28;20042;-75
2023/03/29 09:50:35;;;;;;;6.03;4.00;;;;;;;17.88;58.16;99046.06;10411995;28;20441;-75
2023/03/29 09:55:39;;;;;;;10.77;4.43;;;;;;;18.22;58.00;99051.38;10413633;28;20127;-76
2023/03/29 10:00:40;;;;;;;5.40;3.67;;;;;;;18.33;57.73;99033.47;10411714;28;20076;-75
2023/03/29 10:05:45;;;;;;;11.65;4.40;;;;;;;18.09;57.42;99020.28;10412939;28;20280;-75
2023/03/29 10:10:47;;;;;;;5.65;3.88;;;;;;;17.73;57.67;98954.50;10410542;28;20124;-76
2023/03/29 10:16:04;;;;;;;7.30;4.15;;;;;;;18.10;57.04;98994.22;10412000;28;20048;-75
2023/03/29 10:21:06;;;;;;;30.35;14.43;;;;;;;18.18;57.11;99008.03;10417152;28;20444;-75
2023/03/29 10:26:15;;;;;;;7.03;4.32;;;;;;;18.19;57.34;99008.88;10410735;28;20464;-75
2023/03/29 10:31:19;;;;;;;6.57;3.92;;;;;;;18.03;57.51;98994.41;10391133;28;20409;-76
2023/03/29 10:36:21;;;;;;;7.38;3.58;;;;;;;17.32;58.27;98925.22;10393511;28;20099;-75
2023/03/29 10:41:24;;;;;;;5.32;3.40;;;;;;;17.13;58.38;98926.53;10395919;28;20409;-75
2023/03/29 10:46:24;;;;;;;12.52;6.18;;;;;;;17.65;58.06;98977.25;10416840;28;20037;-75
2023/03/29 10:51:31;;;;;;;9.30;4.30;;;;;;;17.52;57.41;98932.75;10425807;28;20183;-75
2023/03/29 10:56:41;;;;;;;10.57;6.45;;;;;;;17.97;56.23;98973.91;10405243;28;20064;-76
2023/03/29 11:02:17;;;;;;;9.85;6.35;;;;;;;18.68;55.89;99027.69;10397610;28;20041;-75
2023/03/29 11:07:38;;;;;;;5.25;3.63;;;;;;;18.48;55.82;99021.00;10374246;28;20069;-75
2023/03/29 11:13:09;;;;;;;4.88;3.50;;;;;;;17.94;56.72;99044.25;10373430;28;20046;-75
2023/03/29 11:18:31;;;;;;;8.60;5.95;;;;;;;17.39;57.61;99037.78;10373252;28;20616;-76
2023/03/29 11:24:21;;;;;;;10.00;6.07;;;;;;;16.98;58.29;99026.38;10398602;28;20045;-75
2023/03/29 11:29:31;;;;;;;13.10;6.85;;;;;;;16.78;58.61;99012.59;10408185;28;20036;-75
2023/03/29 11:34:42;;;;;;;13.20;8.57;;;;;;;16.83;59.19;99034.16;10407036;28;20030;-74
2023/03/29 11:40:05;;;;;;;8.95;6.07;;;;;;;16.93;59.11;99063.03;10407083;28;20073;-74
2023/03/29 11:45:14;;;;;;;5.88;3.90;;;;;;;16.37;59.37;98999.22;10406980;28;20119;-74
2023/03/29 11:50:26;;;;;;;9.18;5.40;;;;;;;16.53;59.90;99080.75;10397639;28;20095;-73
2023/03/29 11:55:31;;;;;;;20.23;11.77;;;;;;;16.34;60.25;99066.72;10388616;28;20457;-74
2023/03/29 12:00:36;;;;;;;17.80;11.77;;;;;;;16.16;60.78;99062.31;10403714;28;20103;-74
2023/03/29 12:05:45;;;;;;;22.40;16.08;;;;;;;16.20;61.22;99068.00;10404427;28;20041;-75
2023/03/29 12:11:03;;;;;;;12.40;7.90;;;;;;;15.57;61.75;98991.91;10400810;28;20096;-74
2023/03/29 12:16:16;;;;;;;10.13;6.85;;;;;;;16.04;61.31;99076.78;10401349;28;20456;-74
2023/03/29 12:21:22;;;;;;;8.98;6.57;;;;;;;15.87;61.90;99085.50;10404766;28;20587;-75
2023/03/29 12:26:39;;;;;;;18.00;10.35;;;;;;;15.86;62.22;99083.91;10398710;28;20546;-74
2023/03/29 12:31:40;;;;;;;20.27;14.18;;;;;;;15.87;61.82;99092.72;10416565;28;20455;-75
2023/03/29 12:37:04;;;;;;;11.55;6.38;;;;;;;15.89;62.20;99102.16;10382774;28;20049;-75
2023/03/29 12:42:25;;;;;;;27.55;17.15;;;;;;;15.82;62.06;99084.56;10370214;28;20121;-76
2023/03/29 12:47:32;;;;;;;15.65;10.00;;;;;;;15.52;62.92;99082.78;10378007;28;20108;-75
2023/03/29 12:52:35;;;;;;;13.35;8.18;;;;;;;15.38;63.29;99084.06;10379077;28;20038;-76
2023/03/29 12:57:41;;;;;;;16.20;9.80;;;;;;;15.21;63.50;99067.84;10377377;28;20063;-75
2023/03/29 13:02:44;;;;;;;113.22;41.58;;;;;;;14.54;64.32;98996.63;10379868;28;20136;-75
2023/03/29 13:07:46;;;;;;;71.32;32.53;;;;;;;14.63;65.08;99039.03;10378848;28;20038;-75
2023/03/29 13:12:49;;;;;;;26.02;13.30;;;;;;;14.62;65.60;99094.34;10378336;28;20124;-75
2023/03/29 13:17:53;;;;;;;13.68;6.85;;;;;;;14.44;65.88;99102.38;10378658;28;20116;-75
2023/03/29 13:23:09;;;;;;;;;;;;;;;14.53;64.92;99151.81;10378858;28;20092;-74
2023/03/29 13:28:44;;;;;;;7.85;5.55;;;;;;;14.35;67.73;99164.09;10378632;28;20365;-77
2023/03/29 13:33:54;;;;;;;9.70;7.60;;;;;;;14.35;68.50;99157.94;10379680;28;20056;-76
2023/03/29 13:39:01;;;;;;;7.85;6.13;;;;;;;14.30;69.78;99155.94;10413580;28;20115;-77
2023/03/29 13:44:03;;;;;;;33.85;30.02;;;;;;;13.72;69.96;99052.16;10378263;28;20072;-76
2023/03/29 13:49:25;;;;;;;10.73;8.25;;;;;;;13.77;77.23;99070.22;10398220;28;20413;-75
2023/03/29 13:54:49;;;;;;;10.03;7.20;;;;;;;13.48;77.56;99037.81;10397936;28;20044;-75
2023/03/29 13:59:49;;;;;;;9.73;7.03;;;;;;;13.77;75.96;99102.25;10405750;28;20057;-76
2023/03/29 14:04:51;;;;;;;10.55;7.07;;;;;;;13.52;77.91;99056.88;10376993;28;20042;-76
2023/03/29 14:09:54;;;;;;;11.73;9.35;;;;;;;13.53;79.21;99051.31;10377988;28;20073;-75
2023/03/29 14:15:00;;;;;;;10.23;7.95;;;;;;;13.42;81.96;99038.69;10376733;28;20046;-76
2023/03/29 14:20:07;;;;;;;11.65;9.48;;;;;;;13.53;79.96;99048.66;10390959;28;20540;-74
2023/03/29 14:25:15;;;;;;;8.85;7.07;;;;;;;13.47;81.43;99058.34;10376528;28;20045;-74
2023/03/29 14:30:26;;;;;;;12.82;9.13;;;;;;;13.17;81.62;99028.81;10375925;28;20100;-75
2023/03/29 14:35:32;;;;;;;8.65;7.25;;;;;;;13.32;80.89;99057.84;10392438;28;20034;-75
2023/03/29 14:40:33;;;;;;;13.55;10.77;;;;;;;12.91;79.59;98992.50;10406046;28;20088;-75
2023/03/29 14:45:35;;;;;;;14.15;7.63;;;;;;;12.99;80.34;99016.22;10413595;28;20048;-75
2023/03/29 14:50:35;;;;;;;10.10;8.27;;;;;;;13.19;80.93;99072.09;10381034;28;20425;-75
2023/03/29 14:55:37;;;;;;;16.05;13.50;;;;;;;13.18;81.64;99073.09;10391236;28;20037;-76
2023/03/29 15:00:43;;;;;;;11.82;8.05;;;;;;;13.18;83.13;99081.09;10429180;28;20033;-74
2023/03/29 15:06:03;;;;;;;21.83;11.85;;;;;;;13.26;85.57;99058.72;10415052;28;20069;-75
2023/03/29 15:11:18;;;;;;;22.70;13.40;;;;;;;12.78;85.65;98988.06;10383418;28;20413;-74
2023/03/29 15:16:20;;;;;;;10.93;8.30;;;;;;;12.76;83.89;98995.47;10410304;28;20058;-75
2023/03/29 15:21:22;;;;;;;16.48;8.55;;;;;;;12.94;84.61;99041.91;10400646;28;20088;-75
2023/03/29 15:26:29;;;;;;;16.83;8.32;;;;;;;12.00;85.55;98937.72;10410561;28;20045;-74
2023/03/29 15:31:40;;;;;;;11.90;8.65;;;;;;;12.33;87.53;99001.44;10328003;28;20057;-82
2023/03/29 15:36:45;;;;;;;19.02;8.48;;;;;;;12.66;85.93;99082.25;10234111;28;20414;-89
2023/03/29 15:41:49;;;;;;;11.73;8.75;;;;;;;12.34;86.87;99061.66;10190600;29;20106;-85
2023/03/29 15:46:49;;;;;;;13.52;10.45;;;;;;;12.30;86.22;99059.66;10180217;29;20048;-86
2023/03/29 15:51:52;;;;;;;14.02;10.48;;;;;;;12.04;86.09;99010.78;10204753;29;20044;-79
2023/03/29 15:57:00;;;;;;;16.33;10.93;;;;;;;12.31;86.92;99088.72;10206756;29;20050;-86
2023/03/29 16:02:01;;;;;;;18.10;13.95;;;;;;;12.17;86.58;99108.41;10183104;29;20067;-83
2023/03/29 16:07:06;;;;;;;15.20;11.38;;;;;;;11.99;88.16;99101.06;10167849;29;20526;-85
2023/03/29 16:12:08;;;;;;;13.55;10.18;;;;;;;11.86;87.75;99117.88;10167945;29;20044;-82
2023/03/29 16:17:08;;;;;;;14.80;10.43;;;;;;;11.26;87.78;99023.16;10166653;29;20156;-81
2023/03/29 16:22:10;;;;;;;17.10;11.40;;;;;;;11.66;87.98;99109.88;10170814;29;20035;-91
2023/03/29 16:27:10;;;;;;;18.30;10.55;;;;;;;11.57;88.38;99097.00;10189744;29;20048;-90
2023/03/29 16:32:11;;;;;;;13.48;11.32;;;;;;;11.71;88.03;99114.59;10180016;29;20056;-89
2023/03/29 16:37:12;;;;;;;25.33;11.13;;;;;;;11.30;87.80;99069.56;10185061;29;20044;-89
2023/03/29 16:42:13;;;;;;;12.50;9.25;;;;;;;11.78;87.80;99147.31;10183024;29;20050;-89
2023/03/29 16:47:14;;;;;;;14.50;10.00;;;;;;;11.76;87.84;99109.47;10182020;28;20143;-90
2023/03/29 16:52:15;;;;;;;18.42;11.27;;;;;;;11.39;87.58;99045.22;10180241;29;20044;-88
2023/03/29 16:57:16;;;;;;;22.98;13.85;;;;;;;11.82;87.53;99098.00;10180520;29;20085;-88
2023/03/29 17:02:17;;;;;;;14.98;10.90;;;;;;;11.46;87.42;99055.88;10188005;29;20044;-87
2023/03/29 17:07:17;;;;;;;14.02;10.70;;;;;;;11.99;88.02;99133.00;10187334;29;20063;-85
2023/03/29 17:12:20;;;;;;;14.75;10.55;;;;;;;11.99;87.93;99150.81;10195124;29;20039;-87
2023/03/29 17:17:20;;;;;;;15.70;11.50;;;;;;;11.96;87.90;99137.94;10207214;29;20067;-89
2023/03/29 17:22:23;;;;;;;14.35;10.93;;;;;;;11.98;88.41;99143.88;10207498;29;20534;-90
2023/03/29 17:27:23;;;;;;;13.70;10.15;;;;;;;11.69;87.54;99089.22;10209286;29;20083;-91
2023/03/29 17:32:24;;;;;;;12.68;10.70;;;;;;;11.58;87.72;99074.72;10212735;29;20134;-90
2023/03/29 17:37:29;;;;;;;15.48;11.30;;;;;;;12.00;87.99;99149.81;10209899;29;20044;-90
2023/03/29 17:42:30;;;;;;;14.25;10.70;;;;;;;11.54;87.98;99068.97;10206771;29;20056;-90
2023/03/29 17:47:31;;;;;;;16.63;12.23;;;;;;;11.14;88.10;99012.31;10216280;29;20082;-90
2023/03/29 17:52:32;;;;;;;14.68;11.65;;;;;;;11.63;88.63;99096.16;10213427;29;20492;-87
2023/03/29 17:57:32;;;;;;;17.33;12.57;;;;;;;11.26;88.62;99039.13;10186045;29;20051;-86
2023/03/29 18:02:33;;;;;;;21.13;12.98;;;;;;;11.71;89.44;99122.56;10184320;29;20048;-85
2023/03/29 18:07:34;;;;;;;19.50;13.05;;;;;;;11.95;89.82;99141.63;10169268;29;20055;-85
2023/03/29 18:12:35;;;;;;;18.98;14.43;;;;;;;11.93;89.84;99114.41;10179256;29;20085;-83
2023/03/29 18:17:36;;;;;;;17.05;12.63;;;;;;;11.84;90.08;99090.63;10170956;28;20092;-85
2023/03/29 18:22:41;;;;;;;15.93;12.38;;;;;;;11.87;90.66;99084.91;10170955;29;20071;-85
2023/03/29 18:27:41;;;;;;;20.35;12.48;;;;;;;11.59;90.14;99037.25;10171480;29;20052;-85
2023/03/29 18:32:42;;;;;;;16.17;11.70;;;;;;;12.06;90.82;99103.75;10170098;29;20040;-84
2023/03/29 18:37:43;;;;;;;14.63;11.90;;;;;;;11.96;91.17;99084.69;10170002;29;20040;-85
2023/03/29 18:42:43;;;;;;;14.68;12.15;;;;;;;11.81;91.13;99061.75;10169149;29;20047;-84
2023/03/29 18:47:45;;;;;;;13.68;11.95;;;;;;;12.07;91.60;99103.53;10167624;29;20190;-84
2023/03/29 18:52:46;;;;;;;14.13;11.13;;;;;;;12.00;92.05;99099.25;10169112;29;20040;-84
2023/03/29 18:57:46;;;;;;;21.63;11.48;;;;;;;12.08;92.11;99120.31;10169792;29;20048;-84
2023/03/29 19:02:48;;;;;;;14.27;11.75;;;;;;;11.57;92.18;99060.56;10167968;29;20500;-84
2023/03/29 19:07:48;;;;;;;14.90;11.25;;;;;;;12.08;92.94;99149.59;10168377;29;20043;-83
2023/03/29 19:12:52;;;;;;;12.13;10.88;;;;;;;12.04;94.15;99151.03;10166045;29;20408;-83
2023/03/29 19:17:52;;;;;;;12.40;11.02;;;;;;;12.01;93.45;99146.13;10168097;29;20155;-83
2023/03/29 19:22:53;;;;;;;17.73;10.65;;;;;;;11.28;93.69;99027.25;10169400;29;20139;-84
2023/03/29 19:27:54;;;;;;;11.60;8.15;;;;;;;11.80;93.25;99118.69;10175706;28;20407;-84
2023/03/29 19:32:55;;;;;;;9.20;7.38;;;;;;;11.75;93.71;99105.16;10182841;29;20040;-84
2023/03/29 19:37:55;;;;;;;9.68;7.00;;;;;;;11.82;93.85;99115.81;10168159;29;20079;-84
2023/03/29 19:42:56;;;;;;;8.65;6.50;;;;;;;12.09;94.25;99145.91;10176690;29;20131;-84
2023/03/29 19:47:58;;;;;;;7.75;6.15;;;;;;;11.99;94.58;99132.19;10167242;29;20048;-83
2023/03/29 19:52:59;;;;;;;8.57;5.40;;;;;;;11.82;94.58;99115.81;10167561;29;20048;-83
2023/03/29 19:58:00;;;;;;;11.38;7.13;;;;;;;11.48;94.61;99083.06;10166535;29;20126;-78
2023/03/29 20:03:01;;;;;;;11.32;8.98;;;;;;;11.37;95.51;99100.47;10188002;29;20097;-77
2023/03/29 20:08:02;;;;;;;12.75;9.73;;;;;;;11.22;97.21;99149.50;10206441;29;20059;-79
2023/03/29 20:13:05;;;;;;;11.90;9.00;;;;;;;10.44;98.08;99086.97;10192893;29;20384;-78
2023/03/29 20:18:06;;;;;;;14.57;10.27;;;;;;;10.65;99.23;99141.78;10185230;29;20496;-79
2023/03/29 20:23:07;;;;;;;11.48;8.55;;;;;;;10.49;99.43;99155.38;10181574;29;20047;-79
2023/03/29 20:28:08;;;;;;;7.05;2.17;;;;;;;10.40;98.92;99222.94;10192347;29;20419;-76
2023/03/29 20:33:09;;;;;;;3.17;1.65;;;;;;;9.87;98.69;99235.75;10166433;29;20044;-86
2023/03/29 20:38:10;;;;;;;15.27;1.80;;;;;;;9.34;98.23;99228.09;10166752;29;20052;-82
2023/03/29 20:43:17;;;;;;;3.90;1.52;;;;;;;8.81;99.16;99195.69;10166893;29;20505;-79
2023/03/29 20:48:20;;;;;;;13.15;2.42;;;;;;;8.45;100.00;99202.53;10166365;29;20048;-79
2023/03/29 20:53:21;;;;;;;6.18;1.90;;;;;;;8.27;100.00;99238.28;10167274;29;20049;-79
2023/03/29 20:58:21;;;;;;;4.88;2.17;;;;;;;7.71;100.00;99183.88;10176041;29;20539;-80
2023/03/29 21:03:22;;;;;;;4.88;1.30;;;;;;;7.64;100.00;99201.44;10165537;29;20531;-83
2023/03/29 21:08:27;;;;;;;7.50;1.50;;;;;;;6.01;100.00;98975.44;10171085;29;20127;-82
2023/03/29 21:13:28;;;;;;;4.32;1.80;;;;;;;7.25;100.00;99230.63;10172217;28;20412;-81
2023/03/29 21:18:29;;;;;;;3.67;1.60;;;;;;;6.92;100.00;99237.88;10172726;29;20067;-77
2023/03/29 21:23:31;;;;;;;3.45;1.55;;;;;;;7.10;100.00;99293.91;10171875;29;20048;-81
2023/03/29 21:28:32;;;;;;;2.53;1.20;;;;;;;7.13;100.00;99311.22;10171943;28;20578;-85
2023/03/29 21:33:34;;;;;;;5.38;0.80;;;;;;;6.89;100.00;99302.41;10170900;29;20131;-86
2023/03/29 21:38:35;;;;;;;2.17;0.60;;;;;;;6.68;100.00;99292.38;10171472;28;20126;-84
2023/03/29 21:43:36;;;;;;;0.98;0.55;;;;;;;7.13;100.00;99396.56;10171365;29;20582;-82
2023/03/29 21:48:36;;;;;;;4.75;0.80;;;;;;;6.57;100.00;99313.84;10171292;28;20699;-82
2023/03/29 21:53:37;;;;;;;1.55;0.60;;;;;;;7.25;100.00;99405.78;10171478;29;20519;-83
2023/03/29 21:58:38;;;;;;;1.27;0.50;;;;;;;7.11;100.00;99395.09;10169880;29;20048;-84
2023/03/29 22:03:39;;;;;;;1.60;0.90;;;;;;;6.93;100.00;99448.09;10171782;29;20052;-83
2023/03/29 22:08:40;;;;;;;1.15;0.70;;;;;;;6.30;99.90;99421.34;10171000;29;20036;-85
2023/03/29 22:13:42;;;;;;;1.00;0.50;;;;;;;5.80;100.00;99419.56;10170534;29;20570;-85
2023/03/29 22:18:48;;;;;;;1.63;0.30;;;;;;;5.63;99.93;99442.41;10170403;29;20060;-77
2023/03/29 22:23:54;;;;;;;0.85;0.17;;;;;;;5.40;99.69;99468.47;10170213;29;20048;-85
2023/03/29 22:28:57;;;;;;;0.30;0.20;;;;;;;5.36;99.51;99488.19;10169176;29;20564;-85
2023/03/29 22:33:59;;;;;;;2.78;0.10;;;;;;;5.03;99.66;99426.63;10169967;28;20461;-86
2023/03/29 22:39:00;;;;;;;0.25;0.00;;;;;;;5.02;98.56;99453.91;10173562;29;20075;-84
2023/03/29 22:44:01;;;;;;;0.43;0.10;;;;;;;4.98;98.75;99466.53;10176002;29;20076;-85
2023/03/29 22:49:02;;;;;;;0.80;0.10;;;;;;;4.79;98.56;99449.16;10168992;29;20040;-83
2023/03/29 22:54:03;;;;;;;0.70;0.15;;;;;;;3.75;97.89;99293.78;10178921;29;20499;-82
2023/03/29 22:59:04;;;;;;;0.00;0.00;;;;;;;4.76;97.86;99448.63;10180656;29;20052;-82
2023/03/29 23:04:05;;;;;;;0.45;0.00;;;;;;;4.53;97.82;99408.81;10169328;29;20044;-80
2023/03/29 23:09:06;;;;;;;0.10;0.00;;;;;;;4.65;97.68;99457.56;10169666;29;20040;-84
2023/03/29 23:14:07;;;;;;;0.30;0.00;;;;;;;4.47;98.26;99438.34;10168642;29;20044;-83
2023/03/29 23:19:08;;;;;;;0.43;0.00;;;;;;;3.93;97.04;99384.94;10169366;29;20056;-82
2023/03/29 23:24:08;;;;;;;0.00;0.00;;;;;;;4.06;96.82;99443.19;10178732;29;20500;-82
2023/03/29 23:29:09;;;;;;;0.63;0.08;;;;;;;4.35;96.75;99485.91;10168695;29;20037;-84